createdAt,value
2018-07-28T00:00:23.242Z,84.39
2018-07-28T00:02:52.809Z,84.60
2018-07-28T00:05:21.576Z,84.77
2018-07-28T00:07:50.290Z,84.54
2018-07-28T00:10:19.701Z,84.18
2018-07-28T00:12:48.351Z,84.20
2018-07-28T00:15:17.195Z,84.75
2018-07-28T00:17:45.776Z,84.82
2018-07-28T00:20:14.365Z,85.11
2018-07-28T00:22:43.001Z,85.25
2018-07-28T00:25:12.655Z,85.29
2018-07-28T00:27:41.695Z,85.38
2018-07-28T00:30:12.168Z,85.39
2018-07-28T00:32:41.062Z,85.25
2018-07-28T00:35:09.792Z,84.81
2018-07-28T00:37:38.545Z,85.36
2018-07-28T00:40:07.596Z,84.97
2018-07-28T00:42:37.311Z,85.63
2018-07-28T00:45:06.304Z,85.38
2018-07-28T00:47:35.465Z,85.50
2018-07-28T00:50:04.840Z,85.26
2018-07-28T00:52:33.508Z,84.61
2018-07-28T00:55:02.772Z,84.84
2018-07-28T00:57:31.362Z,84.86
2018-07-28T01:00:00.767Z,85.10
2018-07-28T01:02:29.690Z,85.16
2018-07-28T01:04:58.361Z,85.11
2018-07-28T01:07:26.931Z,84.61
2018-07-28T01:09:55.526Z,84.60
2018-07-28T01:12:24.276Z,84.72
2018-07-28T01:14:52.945Z,85.19
2018-07-28T01:17:21.684Z,85.40
2018-07-28T01:19:50.336Z,85.97
2018-07-28T01:22:19.252Z,85.71
2018-07-28T01:24:47.905Z,85.13
2018-07-28T01:27:16.431Z,85.90
2018-07-28T01:29:45.082Z,85.50
2018-07-28T01:32:13.576Z,85.60
2018-07-28T01:34:42.146Z,86.24
2018-07-28T01:37:10.721Z,85.87
2018-07-28T01:39:39.315Z,85.72
2018-07-28T01:42:07.910Z,86.21
2018-07-28T01:44:36.636Z,86.15
2018-07-28T01:47:05.226Z,86.20
2018-07-28T01:49:33.959Z,86.72
2018-07-28T01:52:02.493Z,87.10
2018-07-28T01:54:31.145Z,87.43
2018-07-28T01:56:59.821Z,87.19
2018-07-28T01:59:28.387Z,87.00
2018-07-28T02:01:56.977Z,87.26
2018-07-28T02:04:25.626Z,87.48
2018-07-28T02:06:54.260Z,87.19
2018-07-28T02:09:22.960Z,87.68
2018-07-28T02:11:51.566Z,87.81
2018-07-28T02:14:20.628Z,87.38
2018-07-28T02:16:49.366Z,87.91
2018-07-28T02:19:17.963Z,87.50
2018-07-28T02:21:46.672Z,87.19
2018-07-28T02:24:15.475Z,87.11
2018-07-28T02:26:44.212Z,86.97
2018-07-28T02:29:12.926Z,87.37
2018-07-28T02:31:42.218Z,87.44
2018-07-28T02:34:10.850Z,87.38
2018-07-28T02:36:39.609Z,87.87
2018-07-28T02:39:10.997Z,87.80
2018-07-28T02:41:40.120Z,87.77
2018-07-28T02:44:09.089Z,87.78
2018-07-28T02:46:38.054Z,88.22
2018-07-28T02:49:07.272Z,88.19
2018-07-28T02:51:35.865Z,87.99
2018-07-28T02:54:04.423Z,88.56
2018-07-28T02:56:33.053Z,88.80
2018-07-28T02:59:01.732Z,88.92
2018-07-28T03:01:31.061Z,89.01
2018-07-28T03:04:00.238Z,89.29
2018-07-28T03:06:29.357Z,88.96
2018-07-28T03:08:58.601Z,89.20
2018-07-28T03:11:28.107Z,89.15
2018-07-28T03:13:57.342Z,88.83
2018-07-28T03:16:26.274Z,89.34
2018-07-28T03:18:54.902Z,89.88
2018-07-28T03:21:23.457Z,89.43
2018-07-28T03:23:52.013Z,90.38
2018-07-28T03:26:20.611Z,90.06
2018-07-28T03:28:49.151Z,90.39
2018-07-28T03:31:17.794Z,90.09
2018-07-28T03:33:46.367Z,90.07
2018-07-28T03:36:15.146Z,90.47
2018-07-28T03:38:43.718Z,90.30
2018-07-28T03:41:12.343Z,90.31
2018-07-28T03:43:40.973Z,91.05
2018-07-28T03:46:09.528Z,90.90
2018-07-28T03:48:38.108Z,90.80
2018-07-28T03:51:06.693Z,90.80
2018-07-28T03:53:36.029Z,90.51
2018-07-28T03:56:04.674Z,91.12
2018-07-28T03:58:33.895Z,91.35
2018-07-28T04:01:02.626Z,90.86
2018-07-28T04:03:31.238Z,91.32
2018-07-28T04:05:59.826Z,91.26
2018-07-28T04:08:28.448Z,91.06
2018-07-28T04:10:57.647Z,91.02
2018-07-28T04:13:26.211Z,91.37
2018-07-28T04:15:54.871Z,90.87
2018-07-28T04:18:23.707Z,90.98
2018-07-28T04:20:52.322Z,90.94
2018-07-28T04:23:20.884Z,90.65
2018-07-28T04:25:49.408Z,90.66
2018-07-28T04:28:18.009Z,90.68
2018-07-28T04:30:47.372Z,90.08
2018-07-28T04:33:15.892Z,89.42
2018-07-28T04:35:45.217Z,89.16
2018-07-28T04:38:13.899Z,89.17
2018-07-28T04:40:42.441Z,88.98
2018-07-28T04:43:11.062Z,88.33
2018-07-28T04:45:39.632Z,87.60
2018-07-28T04:48:08.229Z,86.95
2018-07-28T04:50:36.807Z,87.00
2018-07-28T04:53:05.479Z,86.67
2018-07-28T04:55:34.083Z,86.28
2018-07-28T04:58:02.862Z,85.09
2018-07-28T05:00:31.703Z,84.77
2018-07-28T05:03:00.377Z,84.15
2018-07-28T05:05:29.034Z,83.23
2018-07-28T05:07:57.589Z,81.97
2018-07-28T05:10:26.237Z,80.19
2018-07-28T05:12:55.526Z,79.35
2018-07-28T05:15:24.194Z,78.78
2018-07-28T05:17:52.742Z,76.78
2018-07-28T05:20:21.378Z,75.47
2018-07-28T05:22:49.973Z,73.75
2018-07-28T05:25:18.534Z,71.03
2018-07-28T05:27:47.100Z,69.32
2018-07-28T05:30:15.647Z,67.46
2018-07-28T05:32:44.275Z,65.69
2018-07-28T05:35:12.959Z,64.83
2018-07-28T05:37:41.711Z,65.92
2018-07-28T05:40:10.355Z,68.04
2018-07-28T05:42:39.163Z,67.80
2018-07-28T05:45:08.297Z,68.64
2018-07-28T05:47:37.053Z,68.33
2018-07-28T05:50:06.521Z,66.33
2018-07-28T05:52:35.098Z,63.98
2018-07-28T05:55:03.818Z,61.03
2018-07-28T05:57:32.498Z,57.73
2018-07-28T06:00:02.026Z,55.20
2018-07-28T06:02:30.678Z,52.67
2018-07-28T06:04:59.269Z,50.76
2018-07-28T06:07:28.608Z,51.55
2018-07-28T06:09:57.884Z,50.02
2018-07-28T06:12:26.489Z,47.02
2018-07-28T06:14:56.503Z,46.48
2018-07-28T06:17:25.218Z,44.61
2018-07-28T06:19:53.998Z,44.21
2018-07-28T06:22:22.802Z,41.90
2018-07-28T06:24:51.459Z,40.67
2018-07-28T06:27:20.283Z,40.79
2018-07-28T06:29:49.518Z,40.23
2018-07-28T06:32:18.780Z,39.25
2018-07-28T06:34:47.632Z,39.69
2018-07-28T06:37:16.199Z,39.03
2018-07-28T06:39:44.807Z,38.21
2018-07-28T06:42:13.442Z,39.29
2018-07-28T06:44:42.039Z,39.79
2018-07-28T06:47:10.791Z,37.63
2018-07-28T06:49:39.383Z,35.28
2018-07-28T06:52:07.988Z,34.33
2018-07-28T06:54:36.608Z,33.68
2018-07-28T06:57:05.255Z,32.62
2018-07-28T06:59:33.896Z,31.03
2018-07-28T07:02:02.524Z,34.36
2018-07-28T07:04:32.065Z,37.70
2018-07-28T07:07:01.110Z,38.63
2018-07-28T07:09:30.366Z,41.76
2018-07-28T07:11:59.537Z,43.98
2018-07-28T07:14:28.262Z,44.88
2018-07-28T07:16:57.055Z,46.25
2018-07-28T07:19:25.744Z,48.01
2018-07-28T07:21:54.413Z,49.38
2018-07-28T07:24:23.924Z,50.62
2018-07-28T07:26:52.587Z,50.86
2018-07-28T07:29:21.190Z,51.50
2018-07-28T07:31:50.563Z,52.23
2018-07-28T07:34:19.253Z,53.10
2018-07-28T07:36:47.844Z,53.83
2018-07-28T07:39:16.494Z,54.74
2018-07-28T07:41:45.309Z,54.77
2018-07-28T07:44:14.563Z,54.74
2018-07-28T07:46:43.818Z,54.29
2018-07-28T07:49:12.819Z,55.07
2018-07-28T07:51:41.580Z,56.10
2018-07-28T07:54:10.333Z,57.41
2018-07-28T07:56:38.948Z,59.46
2018-07-28T07:59:08.973Z,61.18
2018-07-28T08:01:38.079Z,60.66
2018-07-28T08:04:06.979Z,61.14
2018-07-28T08:06:35.884Z,61.37
2018-07-28T08:09:06.588Z,61.65
2018-07-28T08:11:35.953Z,65.22
2018-07-28T08:14:05.102Z,65.52
2018-07-28T08:16:34.068Z,65.57
2018-07-28T08:19:02.876Z,65.35
2018-07-28T08:21:31.932Z,65.69
2018-07-28T08:24:00.798Z,66.58
2018-07-28T08:26:29.494Z,69.87
2018-07-28T08:28:58.480Z,72.18
2018-07-28T08:31:27.418Z,71.09
2018-07-28T08:33:56.065Z,69.27
2018-07-28T08:36:25.041Z,68.51
2018-07-28T08:38:53.783Z,65.89
2018-07-28T08:41:22.825Z,63.84
2018-07-28T08:43:51.443Z,64.17
2018-07-28T08:46:20.220Z,64.50
2018-07-28T08:48:48.951Z,65.15
2018-07-28T08:51:17.665Z,64.72
2018-07-28T08:53:46.235Z,64.68
2018-07-28T08:56:15.084Z,62.97
2018-07-28T08:58:44.443Z,62.52
2018-07-28T09:01:13.099Z,62.68
2018-07-28T09:03:41.787Z,63.42
2018-07-28T09:06:10.460Z,63.47
2018-07-28T09:08:39.018Z,61.10
2018-07-28T09:11:07.700Z,59.77
2018-07-28T09:13:36.443Z,56.42
2018-07-28T09:16:05.193Z,53.90
2018-07-28T09:18:33.835Z,49.02
2018-07-28T09:21:02.606Z,42.40
2018-07-28T09:23:31.210Z,35.28
2018-07-28T09:25:59.824Z,31.03
2018-07-28T09:28:28.441Z,27.74
2018-07-28T09:30:57.494Z,26.89
2018-07-28T09:33:26.106Z,26.45
2018-07-28T09:35:54.800Z,24.60
2018-07-28T09:38:23.360Z,24.55
2018-07-28T09:40:51.977Z,24.45
2018-07-28T09:43:20.600Z,25.99
2018-07-28T09:45:49.338Z,27.97
2018-07-28T09:48:17.928Z,26.89
2018-07-28T09:50:46.536Z,25.61
2018-07-28T09:53:15.305Z,26.58
2018-07-28T09:55:44.919Z,29.01
2018-07-28T09:58:14.341Z,29.96
2018-07-28T10:00:48.319Z,31.00
2018-07-28T10:03:23.846Z,31.79
2018-07-28T10:05:52.481Z,32.42
2018-07-28T10:08:21.092Z,33.75
2018-07-28T10:10:49.778Z,32.98
2018-07-28T10:13:18.478Z,33.18
2018-07-28T10:15:47.201Z,34.03
2018-07-28T10:18:15.774Z,33.18
2018-07-28T10:20:44.446Z,35.78
2018-07-28T10:23:13.059Z,35.03
2018-07-28T10:25:41.800Z,37.28
2018-07-28T10:28:10.435Z,36.42
2018-07-28T10:30:39.290Z,37.30
2018-07-28T10:33:08.859Z,36.39
2018-07-28T10:35:37.535Z,36.75
2018-07-28T10:38:06.340Z,37.11
2018-07-28T10:40:35.756Z,37.21
2018-07-28T10:43:05.080Z,38.00
2018-07-28T10:45:33.983Z,37.68
2018-07-28T10:48:02.821Z,37.33
2018-07-28T10:50:31.453Z,35.97
2018-07-28T10:53:00.140Z,33.88
2018-07-28T10:55:28.932Z,33.47
2018-07-28T10:57:57.576Z,33.47
2018-07-28T11:00:26.494Z,34.50
2018-07-28T11:02:55.080Z,33.16
2018-07-28T11:05:23.798Z,32.45
2018-07-28T11:07:52.361Z,32.46
2018-07-28T11:10:21.105Z,32.89
2018-07-28T11:12:49.813Z,32.20
2018-07-28T11:15:18.644Z,31.97
2018-07-28T11:17:47.279Z,32.00
2018-07-28T11:20:15.943Z,32.07
2018-07-28T11:22:45.442Z,32.09
2018-07-28T11:25:14.904Z,30.83
2018-07-28T11:27:43.569Z,31.85
2018-07-28T11:30:13.134Z,31.13
2018-07-28T11:32:52.973Z,31.48
2018-07-28T11:35:32.646Z,32.17
2018-07-28T11:38:41.785Z,32.13
2018-07-28T11:41:21.459Z,33.42
2018-07-28T11:44:01.166Z,32.76
2018-07-28T11:46:30.575Z,33.02
2018-07-28T11:48:59.223Z,33.05
2018-07-28T11:51:27.879Z,32.40
2018-07-28T11:53:56.567Z,32.96
2018-07-28T11:56:25.298Z,33.31
2018-07-28T11:58:53.932Z,33.84
2018-07-28T12:01:22.776Z,34.06
2018-07-28T12:03:51.447Z,35.16
2018-07-28T12:06:20.187Z,35.25
2018-07-28T12:08:48.869Z,34.80
2018-07-28T12:11:17.756Z,35.11
2018-07-28T12:13:46.459Z,35.52
2018-07-28T12:16:15.306Z,34.06
2018-07-28T12:18:43.902Z,33.92
2018-07-28T12:21:12.621Z,33.92
2018-07-28T12:23:41.270Z,33.60
2018-07-28T12:26:10.134Z,31.99
2018-07-28T12:28:39.814Z,32.95
2018-07-28T12:31:08.616Z,33.74
2018-07-28T12:33:38.105Z,34.84
2018-07-28T12:36:07.315Z,34.86
2018-07-28T12:38:36.891Z,34.65
2018-07-28T12:41:05.605Z,35.25
2018-07-28T12:43:34.156Z,35.43
2018-07-28T12:46:02.980Z,35.00
2018-07-28T12:48:31.609Z,34.94
2018-07-28T12:51:00.422Z,35.34
2018-07-28T12:53:29.076Z,35.60
2018-07-28T12:55:57.731Z,35.93
2018-07-28T12:58:26.335Z,36.76
2018-07-28T13:00:55.012Z,37.43
2018-07-28T13:03:23.636Z,38.63
2018-07-28T13:05:52.384Z,38.43
2018-07-28T13:08:21.066Z,38.84
2018-07-28T13:10:49.713Z,39.61
2018-07-28T13:13:18.681Z,39.10
2018-07-28T13:15:47.324Z,39.36
2018-07-28T13:18:15.964Z,38.12
2018-07-28T13:20:44.522Z,37.81
2018-07-28T13:23:13.411Z,38.13
2018-07-28T13:25:42.054Z,38.48
2018-07-28T13:28:10.736Z,37.96
2018-07-28T13:30:39.307Z,37.29
2018-07-28T13:33:08.656Z,37.44
2018-07-28T13:35:37.254Z,37.41
2018-07-28T13:38:05.903Z,37.04
2018-07-28T13:40:35.253Z,36.96
2018-07-28T13:43:03.997Z,36.74
2018-07-28T13:45:32.597Z,36.71
2018-07-28T13:48:01.940Z,36.82
2018-07-28T13:50:30.845Z,36.83
2018-07-28T13:52:59.877Z,36.41
2018-07-28T13:55:29.424Z,36.86
2018-07-28T13:57:58.321Z,36.37
2018-07-28T14:00:28.259Z,34.33
2018-07-28T14:02:56.829Z,34.16
2018-07-28T14:05:25.444Z,34.44
2018-07-28T14:07:54.114Z,34.84
2018-07-28T14:10:22.820Z,35.02
2018-07-28T14:12:51.435Z,35.28
2018-07-28T14:15:20.406Z,34.97
2018-07-28T14:17:49.156Z,35.82
2018-07-28T14:20:18.655Z,36.09
2018-07-28T14:22:47.448Z,35.73
2018-07-28T14:25:16.184Z,36.13
2018-07-28T14:27:44.816Z,36.00
2018-07-28T14:30:13.654Z,36.58
2018-07-28T14:32:42.368Z,36.41
2018-07-28T14:35:11.092Z,36.95
2018-07-28T14:37:40.556Z,37.18
2018-07-28T14:40:09.225Z,37.62
2018-07-28T14:42:37.884Z,38.26
2018-07-28T14:45:08.497Z,38.37
2018-07-28T14:47:37.210Z,39.55
2018-07-28T14:50:06.755Z,40.37
2018-07-28T14:52:35.808Z,40.19
2018-07-28T14:55:04.920Z,41.18
2018-07-28T14:57:33.665Z,41.58
2018-07-28T15:00:02.342Z,42.35
2018-07-28T15:02:31.156Z,42.03
2018-07-28T15:04:59.775Z,42.24
2018-07-28T15:07:28.484Z,42.87
2018-07-28T15:09:56.999Z,42.88
2018-07-28T15:12:25.596Z,43.18
2018-07-28T15:14:55.035Z,43.38
2018-07-28T15:17:25.169Z,43.79
2018-07-28T15:19:53.791Z,43.31
2018-07-28T15:22:22.474Z,43.97
2018-07-28T15:24:51.798Z,43.57
2018-07-28T15:27:20.388Z,44.44
2018-07-28T15:29:49.101Z,44.67
2018-07-28T15:32:17.718Z,44.57
2018-07-28T15:34:46.365Z,44.37
2018-07-28T15:37:15.030Z,44.39
2018-07-28T15:39:43.659Z,44.37
2018-07-28T15:42:12.390Z,45.06
2018-07-28T15:44:40.975Z,45.15
2018-07-28T15:47:09.714Z,44.67
2018-07-28T15:49:39.180Z,44.93
2018-07-28T15:52:07.814Z,45.10
2018-07-28T15:54:36.466Z,45.60
2018-07-28T15:57:05.614Z,44.96
2018-07-28T15:59:34.344Z,45.46
2018-07-28T16:02:03.084Z,45.58
2018-07-28T16:04:31.835Z,45.84
2018-07-28T16:07:00.541Z,46.51
2018-07-28T16:09:29.230Z,46.88
2018-07-28T16:11:57.930Z,46.57
2018-07-28T16:14:26.549Z,47.22
2018-07-28T16:16:55.745Z,46.94
2018-07-28T16:19:24.879Z,47.83
2018-07-28T16:21:53.540Z,47.70
2018-07-28T16:24:22.254Z,48.56
2018-07-28T16:26:50.953Z,49.11
2018-07-28T16:29:19.555Z,49.22
2018-07-28T16:31:48.165Z,49.26
2018-07-28T16:34:16.785Z,49.94
2018-07-28T16:36:45.500Z,49.77
2018-07-28T16:39:14.835Z,50.18
2018-07-28T16:41:44.043Z,50.91
2018-07-28T16:44:12.639Z,51.04
2018-07-28T16:46:41.412Z,51.41
2018-07-28T16:49:10.875Z,51.78
2018-07-28T16:51:40.034Z,53.05
2018-07-28T16:54:08.733Z,53.39
2018-07-28T16:56:38.230Z,53.68
2018-07-28T16:59:07.745Z,54.49
2018-07-28T17:01:36.564Z,54.81
2018-07-28T17:04:05.801Z,55.74
2018-07-28T17:06:35.247Z,55.81
2018-07-28T17:09:05.644Z,56.94
2018-07-28T17:11:35.719Z,56.88
2018-07-28T17:14:04.440Z,58.04
2018-07-28T17:16:34.095Z,58.19
2018-07-28T17:19:03.585Z,58.81
2018-07-28T17:21:32.394Z,59.33
2018-07-28T17:24:01.294Z,61.40
2018-07-28T17:26:30.074Z,61.61
2018-07-28T17:28:59.116Z,62.80
2018-07-28T17:31:27.850Z,64.94
2018-07-28T17:33:56.534Z,65.82
2018-07-28T17:36:25.187Z,66.02
2018-07-28T17:38:54.080Z,62.78
2018-07-28T17:41:22.694Z,62.39
2018-07-28T17:43:51.538Z,61.68
2018-07-28T17:46:20.247Z,61.22
2018-07-28T17:48:49.035Z,60.89
2018-07-28T17:51:18.329Z,61.09
2018-07-28T17:53:47.169Z,61.63
2018-07-28T17:56:15.853Z,62.13
2018-07-28T17:58:44.655Z,61.99
2018-07-28T18:01:13.362Z,61.78
2018-07-28T18:03:42.193Z,61.74
2018-07-28T18:06:10.908Z,60.77
2018-07-28T18:08:39.756Z,60.36
2018-07-28T18:11:08.519Z,60.46
2018-07-28T18:13:37.271Z,60.64
2018-07-28T18:16:06.756Z,60.17
2018-07-28T18:18:36.825Z,60.35
2018-07-28T18:21:06.174Z,59.84
2018-07-28T18:23:34.871Z,59.86
2018-07-28T18:26:03.541Z,59.74
2018-07-28T18:28:32.218Z,60.36
2018-07-28T18:31:00.899Z,59.88
2018-07-28T18:33:30.131Z,60.70
2018-07-28T18:35:59.515Z,60.33
2018-07-28T18:38:28.222Z,60.24
2018-07-28T18:40:57.462Z,60.09
2018-07-28T18:43:26.148Z,60.09
2018-07-28T18:45:55.007Z,59.87
2018-07-28T18:48:23.644Z,59.31
2018-07-28T18:50:52.393Z,59.36
2018-07-28T18:53:22.037Z,59.25
2018-07-28T18:55:51.056Z,59.61
2018-07-28T18:58:20.730Z,59.60
2018-07-28T19:00:49.944Z,59.77
2018-07-28T19:03:18.740Z,59.93
2018-07-28T19:05:48.179Z,60.40
2018-07-28T19:08:17.524Z,61.37
2018-07-28T19:10:46.220Z,62.66
2018-07-28T19:14:22.590Z,62.98
2018-07-28T19:16:51.370Z,65.01
2018-07-28T19:19:20.471Z,65.47
2018-07-28T19:21:49.207Z,66.39
2018-07-28T19:24:17.912Z,66.65
2018-07-28T19:26:47.228Z,66.85
2018-07-28T19:29:21.105Z,66.48
2018-07-28T19:31:49.739Z,67.12
2018-07-28T19:34:18.506Z,67.01
2018-07-28T19:36:52.764Z,67.00
2018-07-28T19:39:22.274Z,66.90
2018-07-28T19:41:56.250Z,67.13
2018-07-28T19:44:24.984Z,68.09
2018-07-28T19:46:53.585Z,69.15
2018-07-28T19:49:22.262Z,68.86
2018-07-28T19:51:51.036Z,67.95
2018-07-28T19:54:19.743Z,67.85
2018-07-28T19:56:48.547Z,67.67
2018-07-28T19:59:17.685Z,69.30
2018-07-28T20:01:47.142Z,69.64
2018-07-28T20:04:15.907Z,69.83
2018-07-28T20:06:45.414Z,70.04
2018-07-28T20:09:14.122Z,70.08
2018-07-28T20:11:42.953Z,70.26
2018-07-28T20:14:11.821Z,70.04
2018-07-28T20:16:40.490Z,70.28
2018-07-28T20:19:09.203Z,71.40
2018-07-28T20:21:38.486Z,71.45
2018-07-28T20:24:07.266Z,71.50
2018-07-28T20:26:36.071Z,71.57
2018-07-28T20:29:04.744Z,71.62
2018-07-28T20:31:33.651Z,72.39
2018-07-28T20:34:03.095Z,72.47
2018-07-28T20:36:31.860Z,72.28
2018-07-28T20:39:00.480Z,73.35
2018-07-28T20:41:29.260Z,73.32
2018-07-28T20:43:58.827Z,73.80
2018-07-28T20:46:27.545Z,73.71
2018-07-28T20:48:56.413Z,74.14
2018-07-28T20:51:25.065Z,74.40
2018-07-28T20:53:53.753Z,74.00
2018-07-28T20:56:22.541Z,74.24
2018-07-28T20:58:51.272Z,74.48
2018-07-28T21:01:19.931Z,75.17
2018-07-28T21:03:48.773Z,74.92
2018-07-28T21:06:17.662Z,75.02
2018-07-28T21:08:47.221Z,75.43
2018-07-28T21:11:16.982Z,75.24
2018-07-28T21:13:45.612Z,75.76
2018-07-28T21:16:14.239Z,76.55
2018-07-28T21:18:43.040Z,77.01
2018-07-28T21:21:11.743Z,77.30
2018-07-28T21:23:40.577Z,77.38
2018-07-28T21:26:09.947Z,77.67
2018-07-28T21:28:38.658Z,78.12
2018-07-28T21:31:07.448Z,77.92
2018-07-28T21:33:36.261Z,78.17
2018-07-28T21:36:04.951Z,78.44
2018-07-28T21:38:33.707Z,78.42
2018-07-28T21:41:02.458Z,78.56
2018-07-28T21:43:31.323Z,78.93
2018-07-28T21:46:00.166Z,78.93
2018-07-28T21:48:28.857Z,79.31
2018-07-28T21:50:58.106Z,79.86
2018-07-28T21:53:31.167Z,79.50
2018-07-28T21:56:00.069Z,79.98
2018-07-28T21:58:29.298Z,80.07
2018-07-28T22:01:05.114Z,80.11
2018-07-28T22:03:34.152Z,80.32
2018-07-28T22:06:02.900Z,80.23
2018-07-28T22:08:31.505Z,80.48
2018-07-28T22:11:00.541Z,80.51
2018-07-28T22:13:29.369Z,81.26
2018-07-28T22:15:58.150Z,80.82
2018-07-28T22:18:26.791Z,81.76
2018-07-28T22:20:55.582Z,82.01
2018-07-28T22:23:24.471Z,82.16
2018-07-28T22:25:54.031Z,82.10
2018-07-28T22:28:23.870Z,82.43
2018-07-28T22:30:53.080Z,82.63
2018-07-28T22:33:21.732Z,82.45
2018-07-28T22:35:50.475Z,82.89
2018-07-28T22:38:19.142Z,83.56
2018-07-28T22:40:48.418Z,83.36
2018-07-28T22:43:17.127Z,84.02
2018-07-28T22:45:45.870Z,84.08
2018-07-28T22:48:14.548Z,84.09
2018-07-28T22:50:43.321Z,84.67
2018-07-28T22:53:12.110Z,84.74
2018-07-28T22:55:41.720Z,84.43
2018-07-28T22:58:10.367Z,84.65
2018-07-28T23:00:39.128Z,84.58
2018-07-28T23:03:07.901Z,84.82
2018-07-28T23:05:36.607Z,85.16
2018-07-28T23:08:05.207Z,85.57
2018-07-28T23:10:33.871Z,85.55
2018-07-28T23:13:03.352Z,86.09
2018-07-28T23:15:32.113Z,86.77
2018-07-28T23:18:00.800Z,86.72
2018-07-28T23:20:29.747Z,86.52
2018-07-28T23:22:58.429Z,86.74
2018-07-28T23:25:26.995Z,87.54
2018-07-28T23:27:55.766Z,87.37
2018-07-28T23:30:24.437Z,87.01
2018-07-28T23:32:53.231Z,86.84
2018-07-28T23:35:21.892Z,86.51
2018-07-28T23:37:50.559Z,86.80
2018-07-28T23:40:19.152Z,86.83
2018-07-28T23:42:47.861Z,87.16
2018-07-28T23:45:16.558Z,87.21
2018-07-28T23:47:45.130Z,87.32
2018-07-28T23:50:13.886Z,87.89
2018-07-28T23:52:43.323Z,87.86
2018-07-28T23:55:12.041Z,87.70
2018-07-28T23:57:41.387Z,87.94
